Time;durP1;ratioP1;P1;durP2;ratioP2;P2;SDS_P1;SDS_P2;PMS_P1;PMS_P2;Temp;Humidity;BMP_temperature;BMP_pressure;BME280_temperature;BME280_humidity;BME280_pressure;Samples;Min_cycle;Max_cycle;Signal;HPM_P1;HPM_P2
2022/06/20 00:01:32;;;;;;;6.03;1.13;;;13.80;99.90;;;;;;5058440;28;20502;-44
2022/06/20 00:03:58;;;;;;;9.70;1.83;;;13.80;99.90;;;;;;5050582;28;20037;-44
2022/06/20 00:06:25;;;;;;;5.72;1.10;;;13.80;99.90;;;;;;5063823;28;20493;-45
2022/06/20 00:08:51;;;;;;;14.73;1.10;;;13.80;99.90;;;;;;5055226;28;20041;-43
2022/06/20 00:11:42;;;;;;;7.13;0.75;;;13.80;99.90;;;;;;5050835;28;20498;-44
2022/06/20 00:14:16;;;;;;;5.30;0.88;;;13.70;99.90;;;;;;5048236;28;20465;-44
2022/06/20 00:16:42;;;;;;;4.35;0.93;;;13.70;99.90;;;;;;5051128;28;20040;-43
2022/06/20 00:19:09;;;;;;;6.85;1.48;;;13.80;99.90;;;;;;5054189;28;20029;-44
2022/06/20 00:21:36;;;;;;;5.55;1.08;;;13.70;99.90;;;;;;5061109;28;20076;-44
2022/06/20 00:24:02;;;;;;;7.45;1.20;;;13.70;99.90;;;;;;5056282;28;20037;-44
2022/06/20 00:26:28;;;;;;;8.30;1.17;;;13.70;99.90;;;;;;5060338;28;20056;-44
2022/06/20 00:28:53;;;;;;;10.32;1.77;;;13.70;99.90;;;;;;5054885;28;20040;-44
2022/06/20 00:31:19;;;;;;;10.40;1.58;;;13.70;99.90;;;;;;5055626;28;20024;-45
2022/06/20 00:33:45;;;;;;;5.80;1.17;;;13.60;99.90;;;;;;5066559;28;20501;-46
2022/06/20 00:36:12;;;;;;;5.13;1.00;;;13.60;99.90;;;;;;5068821;28;20060;-44
2022/06/20 00:38:38;;;;;;;7.60;1.05;;;13.60;99.90;;;;;;5068816;28;20059;-45
2022/06/20 00:41:09;;;;;;;5.60;1.27;;;13.60;99.90;;;;;;5063070;28;20506;-44
2022/06/20 00:43:40;;;;;;;2.60;0.85;;;13.60;99.90;;;;;;5049880;28;20494;-44
2022/06/20 00:46:17;;;;;;;5.65;0.88;;;13.50;99.90;;;;;;5051297;28;20491;-44
2022/06/20 00:48:49;;;;;;;10.90;1.73;;;13.50;99.90;;;;;;5051432;28;20040;-44
2022/06/20 00:51:26;;;;;;;7.20;1.70;;;13.50;99.90;;;;;;5052430;28;20041;-44
2022/06/20 00:54:01;;;;;;;7.88;1.17;;;13.50;99.90;;;;;;5069208;28;20068;-44
2022/06/20 00:56:45;;;;;;;6.05;0.98;;;13.50;99.90;;;;;;5062202;28;20036;-44
2022/06/20 00:59:15;;;;;;;7.95;1.10;;;13.50;99.90;;;;;;5048955;28;20056;-44
2022/06/20 01:01:41;;;;;;;4.47;1.15;;;13.50;99.90;;;;;;5054344;28;20413;-44
2022/06/20 01:04:14;;;;;;;5.75;1.17;;;13.50;99.90;;;;;;5070085;28;20043;-44
2022/06/20 01:06:47;;;;;;;4.05;0.63;;;13.40;99.90;;;;;;5067105;28;20048;-44
2022/06/20 01:09:15;;;;;;;3.67;0.77;;;13.40;99.90;;;;;;5064060;28;20044;-44
2022/06/20 01:11:43;;;;;;;5.68;0.95;;;13.50;99.90;;;;;;5049148;28;20536;-44
2022/06/20 01:14:19;;;;;;;5.85;1.00;;;13.50;99.90;;;;;;5049240;28;20037;-47
2022/06/20 01:16:45;;;;;;;8.77;0.70;;;13.50;99.90;;;;;;5052911;28;20040;-45
2022/06/20 01:19:39;;;;;;;3.90;1.00;;;13.50;99.90;;;;;;5052230;28;20174;-44
2022/06/20 01:22:19;;;;;;;9.13;0.88;;;13.50;99.90;;;;;;5054651;28;20667;-44
2022/06/20 01:24:56;;;;;;;7.30;1.45;;;13.50;99.90;;;;;;5058863;28;20045;-45
2022/06/20 01:27:33;;;;;;;6.88;0.63;;;13.50;99.90;;;;;;5058686;28;20097;-44
2022/06/20 01:29:59;;;;;;;6.20;0.80;;;13.50;99.90;;;;;;5068864;28;20093;-44
2022/06/20 01:32:25;;;;;;;3.17;1.15;;;13.40;99.90;;;;;;5064428;28;20513;-46
2022/06/20 01:34:51;;;;;;;8.10;1.27;;;13.40;99.90;;;;;;5051789;28;20045;-45
2022/06/20 01:37:26;;;;;;;6.70;0.88;;;13.40;99.90;;;;;;5050480;28;20041;-44
2022/06/20 01:39:56;;;;;;;3.45;0.73;;;13.40;99.90;;;;;;5050469;28;20328;-45
2022/06/20 01:42:23;;;;;;;11.85;1.67;;;13.30;99.90;;;;;;5053425;28;20040;-45
2022/06/20 01:48:00;;;;;;;5.95;1.65;;;13.40;99.90;;;;;;5049786;28;20044;-44
2022/06/20 01:50:26;;;;;;;13.55;1.35;;;13.40;99.90;;;;;;5049541;28;20087;-44
2022/06/20 01:52:51;;;;;;;5.82;1.02;;;13.40;99.90;;;;;;5059033;28;20452;-47
2022/06/20 01:55:21;;;;;;;7.45;0.82;;;13.40;99.90;;;;;;5059299;28;20041;-44
2022/06/20 01:57:51;;;;;;;7.75;1.20;;;13.40;99.90;;;;;;5050628;28;20120;-44
2022/06/20 02:00:21;;;;;;;5.35;1.45;;;13.40;99.90;;;;;;5075388;28;20474;-45
2022/06/20 02:02:55;;;;;;;10.80;1.33;;;13.40;99.90;;;;;;5053281;28;20668;-44
2022/06/20 02:05:26;;;;;;;7.57;1.25;;;13.40;99.90;;;;;;5063822;28;20033;-44
2022/06/20 02:07:52;;;;;;;10.45;1.77;;;13.40;99.90;;;;;;5056864;28;20040;-44
2022/06/20 02:10:24;;;;;;;9.05;0.95;;;13.40;99.90;;;;;;5056147;28;20037;-45
2022/06/20 02:12:51;;;;;;;6.63;1.40;;;13.40;99.90;;;;;;5056451;28;20128;-44
2022/06/20 02:15:22;;;;;;;7.60;1.95;;;13.40;99.90;;;;;;5073377;28;20032;-45
2022/06/20 02:17:50;;;;;;;3.22;1.00;;;13.40;99.90;;;;;;5068737;28;20037;-44
2022/06/20 02:20:27;;;;;;;6.95;1.00;;;13.30;99.90;;;;;;5072591;28;20397;-44
2022/06/20 02:22:53;;;;;;;7.53;0.93;;;13.30;99.90;;;;;;5061315;28;20048;-44
2022/06/20 02:25:24;;;;;;;5.18;1.35;;;13.30;99.90;;;;;;5052868;28;20045;-44
2022/06/20 02:27:58;;;;;;;3.53;0.65;;;13.30;99.90;;;;;;5053023;28;20095;-45
2022/06/20 02:30:24;;;;;;;5.25;0.98;;;13.30;99.90;;;;;;5053316;28;20048;-44
2022/06/20 02:32:55;;;;;;;7.60;1.80;;;13.30;99.90;;;;;;5054229;28;20078;-44
2022/06/20 02:35:21;;;;;;;8.55;1.77;;;13.40;99.90;;;;;;5069980;28;20051;-45
2022/06/20 02:37:48;;;;;;;4.80;1.15;;;13.40;99.90;;;;;;5065838;28;20044;-44
2022/06/20 02:40:17;;;;;;;9.95;1.83;;;13.40;99.90;;;;;;5053709;28;20037;-45
2022/06/20 02:43:13;;;;;;;7.50;1.45;;;13.40;99.90;;;;;;5063925;28;20044;-44
2022/06/20 02:45:40;;;;;;;9.07;1.38;;;13.40;99.90;;;;;;5054867;28;20080;-45
2022/06/20 02:48:08;;;;;;;9.30;1.85;;;13.40;99.90;;;;;;5066406;28;20047;-44
2022/06/20 02:50:48;;;;;;;6.60;1.50;;;13.40;99.90;;;;;;5067252;28;20036;-44
2022/06/20 02:53:32;;;;;;;4.07;1.40;;;13.40;99.90;;;;;;5069645;28;20029;-44
2022/06/20 02:55:58;;;;;;;10.18;1.60;;;13.40;99.90;;;;;;5072642;28;20090;-44
2022/06/20 02:58:30;;;;;;;8.45;1.92;;;13.40;99.90;;;;;;5067643;28;20041;-44
2022/06/20 03:01:04;;;;;;;4.95;1.55;;;13.40;99.90;;;;;;5063893;28;20123;-43
2022/06/20 03:03:44;;;;;;;9.35;1.67;;;13.40;99.90;;;;;;5067342;28;20087;-44
2022/06/20 03:06:16;;;;;;;2.53;1.25;;;13.40;99.90;;;;;;5051027;28;20487;-47
2022/06/20 03:08:41;;;;;;;6.20;1.45;;;13.40;99.90;;;;;;5053354;28;20494;-45
2022/06/20 03:11:09;;;;;;;15.48;1.85;;;13.40;99.90;;;;;;5058364;28;20075;-44
2022/06/20 03:13:37;;;;;;;6.07;1.60;;;13.40;99.90;;;;;;5055577;28;20045;-45
2022/06/20 03:16:05;;;;;;;7.15;1.73;;;13.40;99.90;;;;;;5071305;28;20436;-44
2022/06/20 03:18:35;;;;;;;8.20;1.30;;;13.40;99.90;;;;;;5069502;28;20418;-44
2022/06/20 03:21:00;;;;;;;11.90;2.05;;;13.40;99.90;;;;;;5067445;28;20025;-45
2022/06/20 03:23:32;;;;;;;10.55;1.27;;;13.30;99.90;;;;;;5055872;28;20430;-44
2022/06/20 03:26:00;;;;;;;6.00;2.05;;;13.30;99.90;;;;;;5070273;28;20037;-44
2022/06/20 03:28:27;;;;;;;3.95;1.80;;;13.40;99.90;;;;;;5070344;28;20036;-44
2022/06/20 03:30:52;;;;;;;4.53;1.80;;;13.30;99.90;;;;;;5071860;28;20032;-43
2022/06/20 03:33:21;;;;;;;6.35;1.95;;;13.30;99.90;;;;;;5063675;28;20467;-45
2022/06/20 03:35:54;;;;;;;4.07;1.55;;;13.30;99.90;;;;;;5060148;28;20078;-46
2022/06/20 03:38:21;;;;;;;7.93;1.42;;;13.30;99.90;;;;;;5071053;28;20051;-43
2022/06/20 03:40:47;;;;;;;9.55;1.30;;;13.20;99.90;;;;;;5069702;28;20092;-45
2022/06/20 03:43:17;;;;;;;6.35;1.63;;;13.30;99.90;;;;;;5060246;28;20072;-44
2022/06/20 03:45:48;;;;;;;7.18;1.75;;;13.20;99.90;;;;;;5068156;28;20062;-43
2022/06/20 03:48:19;;;;;;;3.70;1.42;;;13.20;99.90;;;;;;5057291;28;20469;-45
2022/06/20 03:51:11;;;;;;;5.47;1.35;;;13.20;99.90;;;;;;5052977;28;20041;-43
2022/06/20 03:53:40;;;;;;;5.72;1.33;;;13.20;99.90;;;;;;5054968;28;20111;-44
2022/06/20 03:56:15;;;;;;;5.82;1.70;;;13.20;99.90;;;;;;5051023;28;20541;-45
2022/06/20 03:58:53;;;;;;;6.38;1.52;;;13.20;99.90;;;;;;5050787;28;20434;-44
2022/06/20 04:01:27;;;;;;;6.78;1.80;;;13.20;99.90;;;;;;5064254;28;20044;-44
2022/06/20 04:04:03;;;;;;;6.88;1.52;;;13.20;99.90;;;;;;5067664;28;20040;-43
2022/06/20 04:06:45;;;;;;;7.40;1.85;;;13.10;99.90;;;;;;5050992;28;20112;-44
2022/06/20 04:12:47;;;;;;;5.63;1.57;;;13.10;99.90;;;;;;5051998;28;20451;-44
2022/06/20 04:15:20;;;;;;;6.63;2.35;;;13.10;99.90;;;;;;5053513;28;20044;-44
2022/06/20 04:20:54;;;;;;;7.55;1.75;;;13.00;99.90;;;;;;5063220;28;20037;-45
2022/06/20 04:23:25;;;;;;;5.75;1.40;;;13.00;99.90;;;;;;5050962;28;20044;-44
2022/06/20 04:25:58;;;;;;;10.50;2.67;;;13.00;99.90;;;;;;5063432;28;20068;-43
2022/06/20 04:28:54;;;;;;;6.28;1.92;;;13.00;99.90;;;;;;5068099;28;20373;-44
2022/06/20 04:31:47;;;;;;;7.55;1.85;;;13.00;99.90;;;;;;5008357;28;20085;-43
2022/06/20 04:34:28;;;;;;;10.98;2.08;;;13.00;99.90;;;;;;5015405;28;20125;-45
2022/06/20 04:37:00;;;;;;;7.13;2.40;;;13.00;99.90;;;;;;5025694;28;20049;-44
2022/06/20 04:39:46;;;;;;;8.93;2.20;;;13.00;99.90;;;;;;4997969;28;20096;-43
2022/06/20 04:42:41;;;;;;;6.13;1.80;;;13.00;99.90;;;;;;5008607;28;20408;-44
2022/06/20 04:45:46;;;;;;;7.78;1.90;;;13.00;99.90;;;;;;5007731;28;20053;-45
2022/06/20 04:48:22;;;;;;;6.32;2.03;;;13.00;99.90;;;;;;5000660;28;20050;-44
2022/06/20 04:51:10;;;;;;;4.65;2.10;;;13.10;99.90;;;;;;4992026;28;20526;-44
2022/06/20 04:53:36;;;;;;;;;;;13.10;99.90;;;;;;5011994;28;20119;-44
2022/06/20 04:56:06;;;;;;;6.05;1.63;;;13.10;99.90;;;;;;5025432;28;19932;-44
2022/06/20 04:58:45;;;;;;;9.68;1.42;;;13.20;99.90;;;;;;5024510;28;20049;-44
2022/06/20 05:01:11;;;;;;;4.07;1.77;;;13.20;99.90;;;;;;5008682;28;20125;-44
2022/06/20 05:03:44;;;;;;;6.30;1.70;;;13.30;99.90;;;;;;5007438;28;20064;-43
2022/06/20 05:06:17;;;;;;;7.07;1.58;;;13.30;99.90;;;;;;5007948;28;20124;-44
2022/06/20 05:08:50;;;;;;;13.80;2.35;;;13.40;99.90;;;;;;5049554;28;20083;-44
2022/06/20 05:11:29;;;;;;;10.30;1.60;;;13.50;99.90;;;;;;5050840;28;20033;-44
2022/06/20 05:14:05;;;;;;;5.03;2.38;;;13.50;99.90;;;;;;5060918;28;20088;-44
2022/06/20 05:16:42;;;;;;;5.75;1.77;;;13.50;99.90;;;;;;5049434;28;20489;-44
2022/06/20 05:19:15;;;;;;;5.15;1.10;;;13.50;99.90;;;;;;5062232;28;20561;-44
2022/06/20 05:21:44;;;;;;;7.05;1.98;;;13.60;99.90;;;;;;5057659;28;20532;-44
2022/06/20 05:24:20;;;;;;;6.15;1.00;;;13.70;99.90;;;;;;5065123;28;20048;-46
2022/06/20 05:26:49;;;;;;;4.78;0.88;;;13.80;99.90;;;;;;5056510;28;20075;-44
2022/06/20 05:29:23;;;;;;;8.57;1.83;;;13.90;99.90;;;;;;5051489;28;20045;-44
2022/06/20 05:31:52;;;;;;;9.07;1.65;;;13.90;99.90;;;;;;5050547;28;20115;-45
2022/06/20 05:34:36;;;;;;;8.43;1.90;;;14.00;99.90;;;;;;5059627;28;20032;-44
2022/06/20 05:37:21;;;;;;;8.75;1.83;;;14.00;99.90;;;;;;5061159;28;20048;-44
2022/06/20 05:40:03;;;;;;;10.27;1.42;;;14.10;99.90;;;;;;5055945;28;20040;-45
2022/06/20 05:42:29;;;;;;;7.63;1.80;;;14.20;99.90;;;;;;5060463;28;20040;-44
2022/06/20 05:44:54;;;;;;;5.40;1.00;;;14.30;99.90;;;;;;5057861;28;20055;-44
2022/06/20 05:47:23;;;;;;;6.55;1.40;;;14.30;99.90;;;;;;5068174;28;20094;-44
2022/06/20 05:50:01;;;;;;;5.20;1.02;;;14.40;99.90;;;;;;5067816;28;20044;-44
2022/06/20 05:52:30;;;;;;;7.25;1.45;;;14.40;99.90;;;;;;5065580;28;20033;-44
2022/06/20 05:55:05;;;;;;;6.85;1.05;;;14.50;99.90;;;;;;5058040;28;20044;-44
2022/06/20 05:57:33;;;;;;;8.43;1.23;;;14.50;99.90;;;;;;5069069;28;20045;-44
2022/06/20 06:00:16;;;;;;;8.77;1.58;;;14.60;99.90;;;;;;5067568;28;20086;-44
2022/06/20 06:03:09;;;;;;;8.02;2.10;;;14.60;99.90;;;;;;5049532;28;20041;-46
2022/06/20 06:05:45;;;;;;;6.88;1.63;;;14.70;99.90;;;;;;5050565;28;20411;-46
2022/06/20 06:08:26;;;;;;;4.38;1.42;;;14.80;99.90;;;;;;5058968;28;20063;-44
2022/06/20 06:11:32;;;;;;;4.72;1.30;;;14.80;99.90;;;;;;5066803;28;20044;-44
2022/06/20 06:14:10;;;;;;;6.20;1.08;;;14.90;99.90;;;;;;4970262;28;20046;-44
2022/06/20 06:16:51;;;;;;;6.18;1.38;;;14.90;99.90;;;;;;4983175;28;20596;-46
2022/06/20 06:19:20;;;;;;;7.13;1.23;;;15.00;99.90;;;;;;4968042;28;20436;-46
2022/06/20 06:21:48;;;;;;;6.68;1.88;;;15.10;99.90;;;;;;4967624;28;20047;-44
2022/06/20 06:24:19;;;;;;;6.03;1.25;;;15.20;99.90;;;;;;4951120;28;20626;-44
2022/06/20 06:26:46;;;;;;;3.30;1.10;;;15.20;99.90;;;;;;4967517;28;20137;-44
2022/06/20 06:29:30;;;;;;;5.90;1.52;;;15.30;99.90;;;;;;4968148;28;20043;-44
2022/06/20 06:32:04;;;;;;;5.15;1.35;;;15.30;99.90;;;;;;4967592;28;20112;-44
2022/06/20 06:34:40;;;;;;;6.10;1.00;;;15.40;99.90;;;;;;4971358;28;20042;-44
2022/06/20 06:37:17;;;;;;;7.55;1.45;;;15.50;99.90;;;;;;4953114;28;20134;-45
2022/06/20 06:39:59;;;;;;;8.10;1.35;;;15.50;99.90;;;;;;4981451;28;20077;-44
2022/06/20 06:42:25;;;;;;;6.25;1.75;;;15.60;99.90;;;;;;4975830;28;20050;-44
2022/06/20 06:44:53;;;;;;;5.82;1.42;;;15.60;99.90;;;;;;5020926;28;20056;-47
2022/06/20 06:47:38;;;;;;;13.70;2.28;;;15.70;99.90;;;;;;5058377;28;20036;-44
2022/06/20 06:50:27;;;;;;;9.55;1.52;;;15.70;99.90;;;;;;5059857;28;20036;-45
2022/06/20 06:53:29;;;;;;;23.48;2.80;;;15.80;99.90;;;;;;5046619;28;20132;-47
2022/06/20 06:56:00;;;;;;;8.35;1.67;;;15.90;99.90;;;;;;5026024;28;20080;-45
2022/06/20 06:58:35;;;;;;;5.93;1.95;;;16.00;99.90;;;;;;5061248;28;20123;-46
2022/06/20 07:01:12;;;;;;;8.70;1.88;;;16.00;99.90;;;;;;5063759;28;20072;-44
2022/06/20 07:03:43;;;;;;;8.38;1.95;;;16.10;99.90;;;;;;5060240;28;20112;-44
2022/06/20 07:06:20;;;;;;;8.10;1.90;;;16.20;99.90;;;;;;5062640;28;20490;-44
2022/06/20 07:08:52;;;;;;;6.63;2.22;;;16.30;99.90;;;;;;5059794;28;20041;-45
2022/06/20 07:11:21;;;;;;;5.28;1.90;;;16.30;99.90;;;;;;5063589;28;20072;-44
2022/06/20 07:13:58;;;;;;;5.40;1.33;;;16.40;99.90;;;;;;5059052;28;20037;-44
2022/06/20 07:16:33;;;;;;;10.82;1.90;;;16.40;99.90;;;;;;5057181;28;20052;-44
2022/06/20 07:19:00;;;;;;;7.30;2.22;;;16.40;99.70;;;;;;5066150;28;20050;-44
2022/06/20 07:21:29;;;;;;;5.10;1.80;;;16.40;99.90;;;;;;5063097;28;20045;-44
2022/06/20 07:24:05;;;;;;;7.20;1.83;;;16.50;99.20;;;;;;5050189;28;20535;-46
2022/06/20 07:26:41;;;;;;;14.40;2.42;;;16.50;98.10;;;;;;5063592;28;20048;-44
2022/06/20 07:29:22;;;;;;;14.68;2.28;;;16.60;98.80;;;;;;5062323;28;20032;-45
2022/06/20 07:31:52;;;;;;;4.82;2.20;;;16.60;98.90;;;;;;5051851;28;20072;-44
2022/06/20 07:34:24;;;;;;;9.90;2.25;;;16.70;98.60;;;;;;5060179;28;20032;-45
2022/06/20 07:36:55;;;;;;;6.07;1.60;;;16.80;98.70;;;;;;5069138;28;20062;-45
2022/06/20 07:39:30;;;;;;;12.68;2.65;;;16.90;98.80;;;;;;5062467;28;20506;-46
2022/06/20 07:42:03;;;;;;;12.18;2.22;;;17.00;98.50;;;;;;5062665;28;20033;-46
2022/06/20 07:44:36;;;;;;;9.93;2.08;;;16.90;97.90;;;;;;5056428;28;20033;-45
2022/06/20 07:47:18;;;;;;;5.38;2.22;;;16.90;97.70;;;;;;5070436;28;20351;-44
2022/06/20 07:49:54;;;;;;;8.30;2.28;;;16.90;98.10;;;;;;5071171;28;20309;-45
2022/06/20 07:52:29;;;;;;;9.25;2.05;;;17.00;97.50;;;;;;5057757;28;20049;-44
2022/06/20 07:54:59;;;;;;;12.57;1.95;;;17.00;97.60;;;;;;5050964;28;20211;-44
2022/06/20 07:57:32;;;;;;;6.45;1.38;;;17.00;97.50;;;;;;5062061;28;20044;-45
2022/06/20 08:00:09;;;;;;;4.97;1.63;;;17.10;97.10;;;;;;5071435;28;20028;-45
2022/06/20 08:02:55;;;;;;;5.40;1.45;;;17.10;96.50;;;;;;5070619;28;20083;-45
2022/06/20 08:05:28;;;;;;;8.40;1.10;;;17.10;96.60;;;;;;5071297;28;20470;-46
2022/06/20 08:08:11;;;;;;;5.57;1.38;;;17.20;96.10;;;;;;5070901;28;20067;-44
2022/06/20 08:10:44;;;;;;;7.43;1.50;;;17.30;95.30;;;;;;5051297;28;20045;-44
2022/06/20 08:13:21;;;;;;;6.05;1.35;;;17.30;95.90;;;;;;5064859;28;20037;-45
2022/06/20 08:15:46;;;;;;;;;;;17.40;95.60;;;;;;5070996;28;20055;-45
2022/06/20 08:18:12;;;;;;;3.72;1.33;;;17.50;95.20;;;;;;5052019;28;19947;-44
2022/06/20 08:20:42;;;;;;;6.95;1.33;;;17.60;95.50;;;;;;5052415;28;20104;-45
2022/06/20 08:23:18;;;;;;;6.88;1.48;;;17.60;95.30;;;;;;5065468;28;20032;-45
2022/06/20 08:25:54;;;;;;;4.88;0.90;;;17.60;95.40;;;;;;5051785;28;20099;-45
2022/06/20 08:28:22;;;;;;;5.35;1.73;;;17.60;95.60;;;;;;5054373;28;20036;-45
2022/06/20 08:30:49;;;;;;;9.00;1.45;;;17.60;95.50;;;;;;5059044;28;20041;-44
2022/06/20 08:33:30;;;;;;;6.07;1.30;;;17.70;95.50;;;;;;5068129;28;20045;-45
2022/06/20 08:36:11;;;;;;;9.05;1.55;;;17.70;95.40;;;;;;5065501;28;20066;-44
2022/06/20 08:39:15;;;;;;;6.32;1.23;;;17.70;95.90;;;;;;5049697;28;20041;-44
2022/06/20 08:41:43;;;;;;;3.15;1.20;;;17.80;95.00;;;;;;5037074;28;20387;-45
2022/06/20 08:44:24;;;;;;;4.60;1.42;;;17.80;94.70;;;;;;5056657;28;20037;-45
2022/06/20 08:47:18;;;;;;;6.50;1.48;;;17.80;94.60;;;;;;5054843;28;20083;-45
2022/06/20 08:50:09;;;;;;;6.82;0.95;;;17.90;94.50;;;;;;5067339;28;20524;-45
2022/06/20 08:53:09;;;;;;;6.30;1.15;;;18.00;94.20;;;;;;5058024;28;20047;-45
2022/06/20 08:55:58;;;;;;;8.70;1.33;;;18.10;94.80;;;;;;5057172;28;20079;-45
2022/06/20 08:58:51;;;;;;;4.78;0.90;;;18.20;94.30;;;;;;5066054;28;20050;-44
2022/06/20 09:01:23;;;;;;;6.60;1.08;;;18.10;94.50;;;;;;5059814;28;20655;-44
2022/06/20 09:04:03;;;;;;;10.98;1.35;;;18.20;94.40;;;;;;5048228;28;20410;-45
2022/06/20 09:06:53;;;;;;;6.72;1.58;;;18.10;94.30;;;;;;5064256;28;20032;-45
2022/06/20 09:09:39;;;;;;;5.85;0.80;;;18.10;94.40;;;;;;5048659;28;20037;-44
2022/06/20 09:12:35;;;;;;;5.03;0.70;;;18.10;94.00;;;;;;5067559;28;20036;-44
2022/06/20 09:15:16;;;;;;;6.72;1.42;;;18.20;94.50;;;;;;5061140;28;20123;-45
2022/06/20 09:17:44;;;;;;;6.82;1.40;;;18.30;93.50;;;;;;5057181;28;20047;-46
2022/06/20 09:20:35;;;;;;;13.25;2.10;;;18.40;94.40;;;;;;5053241;28;20376;-44
2022/06/20 09:23:09;;;;;;;4.05;1.20;;;18.50;94.30;;;;;;5061079;28;20430;-44
2022/06/20 09:26:12;;;;;;;5.45;0.93;;;18.50;94.00;;;;;;5068135;28;20188;-44
2022/06/20 09:28:51;;;;;;;3.92;1.35;;;18.60;93.30;;;;;;5050984;28;20441;-45
2022/06/20 09:31:36;;;;;;;4.53;1.05;;;18.60;93.40;;;;;;5057655;28;20051;-44
2022/06/20 09:34:34;;;;;;;6.32;0.70;;;18.70;92.10;;;;;;5048096;28;20040;-44
2022/06/20 09:36:59;;;;;;;7.07;1.10;;;18.60;92.10;;;;;;5059605;28;20056;-44
2022/06/20 09:39:40;;;;;;;4.38;0.98;;;18.50;92.30;;;;;;5054982;28;20044;-45
2022/06/20 09:42:11;;;;;;;9.18;1.42;;;18.40;92.80;;;;;;5048745;28;20506;-45
2022/06/20 09:44:52;;;;;;;5.88;0.88;;;18.40;92.80;;;;;;5047886;28;20040;-44
2022/06/20 09:47:38;;;;;;;2.53;0.73;;;18.40;92.80;;;;;;5049492;28;20056;-44
2022/06/20 09:50:21;;;;;;;8.00;0.60;;;18.50;93.30;;;;;;5025836;28;20139;-44
2022/06/20 09:53:11;;;;;;;4.53;0.77;;;18.70;91.40;;;;;;5051165;28;20053;-44
2022/06/20 09:55:43;;;;;;;4.88;0.43;;;18.80;91.30;;;;;;5050904;28;20095;-45
2022/06/20 09:58:39;;;;;;;3.28;0.82;;;18.90;91.40;;;;;;5054088;28;20055;-44
2022/06/20 10:01:21;;;;;;;5.47;0.63;;;19.00;92.70;;;;;;5051664;28;20044;-44
2022/06/20 10:03:52;;;;;;;1.80;0.50;;;19.20;91.40;;;;;;5052896;28;20116;-44
2022/06/20 10:06:30;;;;;;;4.25;0.40;;;19.30;91.10;;;;;;5035971;28;20462;-44
2022/06/20 10:09:34;;;;;;;2.63;0.40;;;19.30;91.10;;;;;;5048039;28;20032;-46
2022/06/20 10:12:10;;;;;;;6.70;1.40;;;19.20;90.60;;;;;;5052832;28;20080;-44
2022/06/20 10:14:48;;;;;;;;;;;19.10;90.90;;;;;;5055816;28;20453;-44
2022/06/20 10:17:36;;;;;;;10.88;1.05;;;19.00;90.30;;;;;;5050220;28;20332;-44
2022/06/20 10:20:32;;;;;;;4.07;0.40;;;19.00;90.50;;;;;;5062106;28;20059;-44
2022/06/20 10:23:16;;;;;;;1.17;0.40;;;18.90;90.30;;;;;;5063981;28;20052;-44
2022/06/20 10:26:20;;;;;;;3.53;1.10;;;18.80;91.10;;;;;;5051367;28;20041;-45
2022/06/20 10:29:20;;;;;;;2.70;0.43;;;18.80;91.10;;;;;;5071930;28;20047;-44
2022/06/20 10:32:16;;;;;;;3.97;0.80;;;18.90;90.50;;;;;;5069517;28;20040;-44
2022/06/20 10:34:50;;;;;;;3.17;0.40;;;18.90;90.50;;;;;;5066559;28;20037;-44
2022/06/20 10:37:24;;;;;;;2.05;0.50;;;18.80;90.70;;;;;;5067958;28;20103;-44
2022/06/20 10:39:53;;;;;;;3.53;0.57;;;18.80;90.00;;;;;;5052163;28;20298;-44
2022/06/20 10:42:40;;;;;;;6.28;0.90;;;18.80;90.00;;;;;;5056593;28;20063;-43
2022/06/20 10:45:21;;;;;;;4.05;0.50;;;18.70;90.10;;;;;;5067009;28;20033;-45
2022/06/20 10:48:22;;;;;;;4.45;0.55;;;18.60;90.40;;;;;;5060116;28;20040;-44
2022/06/20 10:51:02;;;;;;;2.38;0.80;;;18.50;90.10;;;;;;5000609;28;20060;-44
2022/06/20 10:53:32;;;;;;;4.80;0.63;;;18.50;91.00;;;;;;5058806;28;20029;-44
2022/06/20 10:56:26;;;;;;;5.80;1.20;;;18.50;91.60;;;;;;5061612;28;20098;-44
2022/06/20 10:58:55;;;;;;;4.20;0.63;;;18.60;91.00;;;;;;5056749;28;20048;-45
2022/06/20 11:01:43;;;;;;;5.63;0.70;;;18.70;91.80;;;;;;5052511;28;20045;-45
2022/06/20 11:04:29;;;;;;;6.97;0.60;;;18.90;91.70;;;;;;5052158;28;20095;-45
2022/06/20 11:07:22;;;;;;;5.63;0.70;;;19.00;90.30;;;;;;5053306;28;20044;-44
2022/06/20 11:10:08;;;;;;;4.50;0.77;;;19.00;90.30;;;;;;5052359;28;20636;-44
2022/06/20 11:13:02;;;;;;;4.18;0.60;;;19.00;91.00;;;;;;5055305;28;20032;-44
2022/06/20 11:15:33;;;;;;;5.47;0.73;;;19.20;91.30;;;;;;5072197;28;20044;-44
2022/06/20 11:18:25;;;;;;;3.42;1.15;;;19.40;91.50;;;;;;5060086;28;20036;-45
2022/06/20 11:21:05;;;;;;;5.35;0.63;;;19.50;90.40;;;;;;5071864;28;20048;-44
2022/06/20 11:23:49;;;;;;;5.32;0.65;;;19.50;90.00;;;;;;5062316;28;20102;-45
2022/06/20 11:26:36;;;;;;;9.75;1.30;;;19.40;90.10;;;;;;5071724;28;20063;-44
2022/06/20 11:29:20;;;;;;;5.90;0.77;;;19.30;90.60;;;;;;5057671;28;20036;-44
2022/06/20 11:31:52;;;;;;;7.57;1.30;;;19.20;90.50;;;;;;5049698;28;20139;-44
2022/06/20 11:34:35;;;;;;;4.97;0.60;;;19.30;91.00;;;;;;5054503;28;20041;-44
2022/06/20 11:37:30;;;;;;;2.90;0.50;;;19.40;90.00;;;;;;5050053;28;20395;-44
2022/06/20 11:40:26;;;;;;;3.13;0.57;;;19.50;89.40;;;;;;4989597;28;20045;-44
2022/06/20 11:43:08;;;;;;;4.78;0.60;;;19.60;88.70;;;;;;5003427;28;20512;-44
2022/06/20 11:46:04;;;;;;;4.13;0.60;;;19.60;87.80;;;;;;5004845;28;20497;-44
2022/06/20 11:48:57;;;;;;;4.22;0.45;;;19.60;87.40;;;;;;5007194;28;20046;-45
2022/06/20 11:51:50;;;;;;;16.02;0.80;;;19.50;87.20;;;;;;5009574;28;20604;-45
2022/06/20 11:54:20;;;;;;;8.25;0.50;;;19.50;86.10;;;;;;5006569;28;20081;-44
2022/06/20 11:57:02;;;;;;;1.70;0.47;;;19.60;86.40;;;;;;5006224;28;20107;-45
2022/06/20 11:59:33;;;;;;;7.53;0.73;;;19.60;86.50;;;;;;5006428;28;20049;-46
2022/06/20 12:02:31;;;;;;;3.10;0.50;;;19.60;85.80;;;;;;5006968;28;20056;-44
2022/06/20 12:05:18;;;;;;;2.38;0.50;;;19.60;85.00;;;;;;5005128;28;20042;-44
2022/06/20 12:07:52;;;;;;;4.38;0.60;;;19.40;85.80;;;;;;5004072;28;20060;-44
2022/06/20 12:10:45;;;;;;;4.07;0.70;;;19.40;86.00;;;;;;5005248;28;20522;-45
2022/06/20 12:13:40;;;;;;;4.28;0.80;;;19.50;88.30;;;;;;5003084;28;20045;-44
2022/06/20 12:16:14;;;;;;;7.65;0.60;;;19.60;90.70;;;;;;5022435;28;20541;-44
2022/06/20 12:24:33;;;;;;;3.38;0.40;;;20.00;83.80;;;;;;5054059;28;20048;-44
2022/06/20 12:26:59;;;;;;;;;;;20.10;84.00;;;;;;5063167;28;20044;-44
2022/06/20 12:29:34;;;;;;;2.90;0.30;;;20.10;82.50;;;;;;5058536;28;19920;-44
2022/06/20 12:32:05;;;;;;;7.25;0.63;;;20.10;87.00;;;;;;5059830;28;20071;-44
2022/06/20 12:34:53;;;;;;;8.20;0.90;;;20.20;85.60;;;;;;5055548;28;20054;-45
2022/06/20 12:37:37;;;;;;;10.80;1.15;;;20.40;86.40;;;;;;5066559;28;20131;-44
2022/06/20 12:40:05;;;;;;;6.93;0.82;;;20.50;83.80;;;;;;5061981;28;20048;-46
2022/06/20 12:42:43;;;;;;;6.07;1.02;;;20.60;85.20;;;;;;5064354;28;20116;-44
2022/06/20 12:45:27;;;;;;;3.47;0.70;;;20.70;86.30;;;;;;5059390;28;20044;-45
2022/06/20 12:48:11;;;;;;;5.32;0.82;;;20.60;86.50;;;;;;5068178;28;20115;-45
2022/06/20 12:50:48;;;;;;;6.25;0.73;;;20.50;86.60;;;;;;5063365;28;20059;-44
2022/06/20 12:53:32;;;;;;;12.85;1.10;;;20.50;86.20;;;;;;5066878;28;20041;-45
2022/06/20 12:56:12;;;;;;;7.10;1.05;;;20.60;87.40;;;;;;5049587;28;20052;-44
2022/06/20 12:58:49;;;;;;;3.53;0.57;;;20.70;87.20;;;;;;5067927;28;20045;-44
2022/06/20 13:01:31;;;;;;;8.63;0.57;;;20.80;87.90;;;;;;5053435;28;20044;-44
2022/06/20 13:04:05;;;;;;;3.65;0.40;;;20.80;84.50;;;;;;5057035;28;20036;-44
2022/06/20 13:06:47;;;;;;;6.25;0.50;;;20.70;85.30;;;;;;5064034;28;20077;-45
2022/06/20 13:09:43;;;;;;;3.88;0.38;;;20.80;83.60;;;;;;5053739;28;20047;-44
2022/06/20 13:12:28;;;;;;;3.38;0.32;;;20.80;85.40;;;;;;5052615;28;20037;-44
2022/06/20 13:15:45;;;;;;;4.35;0.68;;;20.80;80.90;;;;;;5052521;28;20090;-45
2022/06/20 13:18:35;;;;;;;6.43;1.05;;;20.90;80.90;;;;;;5009839;28;20060;-44
2022/06/20 13:21:16;;;;;;;1.33;0.40;;;20.80;81.10;;;;;;5051054;28;20053;-45
2022/06/20 13:23:50;;;;;;;7.07;1.08;;;20.80;84.00;;;;;;5048124;28;20429;-44
2022/06/20 13:26:21;;;;;;;3.83;0.82;;;20.90;82.60;;;;;;5052601;28;20106;-45
2022/06/20 13:28:50;;;;;;;4.65;0.85;;;20.80;83.50;;;;;;5050659;28;20041;-44
2022/06/20 13:31:20;;;;;;;4.03;0.50;;;20.60;82.30;;;;;;5065624;28;20040;-44
2022/06/20 13:34:16;;;;;;;13.60;1.10;;;20.50;82.80;;;;;;5065429;28;20109;-45
2022/06/20 13:37:03;;;;;;;4.75;0.85;;;20.30;83.10;;;;;;5065997;28;20040;-45
2022/06/20 13:39:53;;;;;;;3.90;0.60;;;20.10;83.40;;;;;;5066319;28;20093;-44
2022/06/20 13:42:31;;;;;;;3.13;0.70;;;19.90;82.90;;;;;;5057976;28;20045;-44
2022/06/20 13:45:10;;;;;;;5.45;0.45;;;19.90;83.90;;;;;;5059012;28;20028;-44
2022/06/20 13:47:51;;;;;;;3.55;0.55;;;19.90;84.40;;;;;;5049744;28;20040;-44
2022/06/20 13:50:34;;;;;;;2.10;0.50;;;19.90;84.60;;;;;;5057935;28;20041;-44
2022/06/20 13:53:31;;;;;;;3.00;0.50;;;20.00;82.40;;;;;;5065332;28;20166;-44
2022/06/20 13:56:09;;;;;;;3.05;0.40;;;20.10;82.20;;;;;;5054973;28;20040;-44